N628DF KW78-KW91
Flight info
| Callsign | N628DF |
|---|---|
| Flight time | N/A |
| Altitude | 2500 |
| Route | SANNY ESISE |
| Aircraft | PA24/L-SDGRY/S |
Departure
| Time | N/A |
|---|---|
| Airport | KW78 |
Arrival
| Time | 2026-04-12 21:27 |
|---|---|
| Airport | Smith Mountain Lake Airport (KW91) |
| Time | Latitude | Longitude | Altitude | Speed | Heading |
|---|---|---|---|---|---|
| 2026-04-12 20:39 | 36.70996 | -78.84908 | 398 ft | 0 kts | 264° |
| 2026-04-12 20:44 | 36.70970 | -78.84925 | 394 ft | 6 kts | 117° |
| 2026-04-12 20:44 | 36.70993 | -78.84883 | 396 ft | 7 kts | 360° |
| 2026-04-12 20:44 | 36.71051 | -78.84888 | 399 ft | 10 kts | 358° |
| 2026-04-12 20:44 | 36.71167 | -78.84897 | 405 ft | 21 kts | 356° |
| 2026-04-12 20:45 | 36.71323 | -78.84909 | 414 ft | 20 kts | 357° |
| 2026-04-12 20:45 | 36.71436 | -78.84917 | 420 ft | 13 kts | 356° |
| 2026-04-12 20:45 | 36.71509 | -78.84921 | 424 ft | 10 kts | 357° |
| 2026-04-12 20:45 | 36.71536 | -78.84915 | 418 ft | 0 kts | 39° |
| 2026-04-12 20:51 | 36.71536 | -78.84914 | 418 ft | 0 kts | 39° |
| 2026-04-12 20:52 | 36.71540 | -78.84911 | 428 ft | 3 kts | 39° |
| 2026-04-12 20:52 | 36.71546 | -78.84868 | 427 ft | 10 kts | 107° |
| 2026-04-12 20:52 | 36.71418 | -78.84829 | 413 ft | 43 kts | 175° |
| 2026-04-12 20:53 | 36.71238 | -78.84814 | 433 ft | 68 kts | 177° |
| 2026-04-12 20:53 | 36.70894 | -78.84808 | 688 ft | 95 kts | 180° |
| 2026-04-12 20:53 | 36.70238 | -78.84843 | 1029 ft | 93 kts | 191° |
| 2026-04-12 20:53 | 36.69933 | -78.85404 | 1379 ft | 90 kts | 275° |
| 2026-04-12 20:54 | 36.70251 | -78.86122 | 1603 ft | 102 kts | 321° |
| 2026-04-12 20:54 | 36.70949 | -78.86401 | 2003 ft | 108 kts | 345° |
| 2026-04-12 20:54 | 36.71652 | -78.86726 | 2443 ft | 109 kts | 315° |
| 2026-04-12 20:54 | 36.72121 | -78.87483 | 2839 ft | 112 kts | 290° |
| 2026-04-12 20:55 | 36.72478 | -78.88474 | 2907 ft | 139 kts | 285° |
| 2026-04-12 20:55 | 36.72843 | -78.89671 | 2863 ft | 156 kts | 287° |
| 2026-04-12 20:55 | 36.73246 | -78.90957 | 2887 ft | 162 kts | 284° |
| 2026-04-12 20:55 | 36.73655 | -78.92284 | 2873 ft | 166 kts | 284° |
| 2026-04-12 20:56 | 36.74050 | -78.93623 | 2914 ft | 163 kts | 290° |
| 2026-04-12 20:56 | 36.74598 | -78.94847 | 2861 ft | 162 kts | 299° |
| 2026-04-12 20:56 | 36.75210 | -78.96036 | 2862 ft | 163 kts | 298° |
| 2026-04-12 20:56 | 36.75880 | -78.97180 | 2870 ft | 164 kts | 300° |
| 2026-04-12 20:57 | 36.76476 | -78.98368 | 2871 ft | 160 kts | 298° |
| 2026-04-12 20:57 | 36.77058 | -78.99538 | 2870 ft | 158 kts | 296° |
| 2026-04-12 20:57 | 36.77622 | -79.00698 | 2875 ft | 156 kts | 293° |
| 2026-04-12 20:57 | 36.78181 | -79.01849 | 2876 ft | 155 kts | 296° |
| 2026-04-12 20:58 | 36.78705 | -79.03022 | 2877 ft | 155 kts | 294° |
| 2026-04-12 20:58 | 36.79210 | -79.04208 | 2885 ft | 155 kts | 295° |
| 2026-04-12 20:58 | 36.79772 | -79.05380 | 2875 ft | 158 kts | 300° |
| 2026-04-12 20:58 | 36.80339 | -79.06566 | 2876 ft | 159 kts | 293° |
| 2026-04-12 20:59 | 36.80872 | -79.07751 | 2875 ft | 157 kts | 291° |
| 2026-04-12 20:59 | 36.81397 | -79.08934 | 2873 ft | 156 kts | 297° |
| 2026-04-12 20:59 | 36.81966 | -79.10093 | 2874 ft | 158 kts | 290° |
| 2026-04-12 20:59 | 36.82461 | -79.11300 | 2874 ft | 156 kts | 294° |
| 2026-04-12 21:00 | 36.82997 | -79.12487 | 2872 ft | 159 kts | 295° |
| 2026-04-12 21:00 | 36.83544 | -79.13685 | 2876 ft | 159 kts | 294° |
| 2026-04-12 21:00 | 36.84092 | -79.14879 | 2874 ft | 158 kts | 294° |
| 2026-04-12 21:00 | 36.84621 | -79.16078 | 2872 ft | 158 kts | 293° |
| 2026-04-12 21:01 | 36.85163 | -79.17260 | 2869 ft | 156 kts | 292° |
| 2026-04-12 21:01 | 36.85651 | -79.18455 | 2863 ft | 153 kts | 292° |
| 2026-04-12 21:01 | 36.86128 | -79.19639 | 2866 ft | 152 kts | 295° |
| 2026-04-12 21:01 | 36.86697 | -79.20771 | 2878 ft | 156 kts | 293° |
| 2026-04-12 21:02 | 36.87210 | -79.21957 | 2865 ft | 154 kts | 297° |
| 2026-04-12 21:02 | 36.87748 | -79.23105 | 2862 ft | 153 kts | 292° |
| 2026-04-12 21:02 | 36.88174 | -79.24310 | 2872 ft | 151 kts | 279° |
| 2026-04-12 21:02 | 36.88588 | -79.25518 | 2865 ft | 152 kts | 294° |
| 2026-04-12 21:03 | 36.89057 | -79.26695 | 2861 ft | 150 kts | 295° |
| 2026-04-12 21:03 | 36.89615 | -79.27798 | 2864 ft | 150 kts | 297° |
| 2026-04-12 21:03 | 36.90087 | -79.28962 | 2867 ft | 150 kts | 293° |
| 2026-04-12 21:03 | 36.90566 | -79.30127 | 2867 ft | 151 kts | 292° |
| 2026-04-12 21:04 | 36.91056 | -79.31314 | 2861 ft | 154 kts | 292° |
| 2026-04-12 21:04 | 36.91543 | -79.32504 | 2864 ft | 154 kts | 292° |
| 2026-04-12 21:04 | 36.92029 | -79.33706 | 2867 ft | 156 kts | 292° |
| 2026-04-12 21:04 | 36.92534 | -79.34901 | 2865 ft | 155 kts | 292° |
| 2026-04-12 21:05 | 36.93004 | -79.36119 | 2871 ft | 157 kts | 290° |
| 2026-04-12 21:05 | 36.93516 | -79.37319 | 2872 ft | 157 kts | 283° |
| 2026-04-12 21:05 | 36.93758 | -79.38632 | 2868 ft | 155 kts | 284° |
| 2026-04-12 21:05 | 36.94051 | -79.39953 | 2866 ft | 159 kts | 274° |
| 2026-04-12 21:06 | 36.94307 | -79.41264 | 2864 ft | 157 kts | 279° |
| 2026-04-12 21:06 | 36.94585 | -79.42567 | 2864 ft | 156 kts | 277° |
| 2026-04-12 21:06 | 36.94832 | -79.43866 | 2870 ft | 154 kts | 279° |
| 2026-04-12 21:06 | 36.95059 | -79.45178 | 2868 ft | 155 kts | 274° |
| 2026-04-12 21:07 | 36.95282 | -79.46483 | 2863 ft | 154 kts | 281° |
| 2026-04-12 21:07 | 36.95607 | -79.47772 | 2865 ft | 156 kts | 285° |
| 2026-04-12 21:07 | 36.96025 | -79.49010 | 2861 ft | 153 kts | 291° |
| 2026-04-12 21:07 | 36.96559 | -79.50174 | 2863 ft | 156 kts | 297° |
| 2026-04-12 21:08 | 36.97146 | -79.51324 | 2866 ft | 157 kts | 294° |
| 2026-04-12 21:08 | 36.97691 | -79.52513 | 2866 ft | 158 kts | 296° |
| 2026-04-12 21:08 | 36.98233 | -79.53701 | 2866 ft | 157 kts | 294° |
| 2026-04-12 21:08 | 36.98797 | -79.54854 | 2865 ft | 155 kts | 296° |
| 2026-04-12 21:09 | 36.99334 | -79.56013 | 2866 ft | 154 kts | 294° |
| 2026-04-12 21:09 | 36.99905 | -79.57130 | 2915 ft | 150 kts | 296° |
| 2026-04-12 21:09 | 37.00416 | -79.58259 | 2913 ft | 148 kts | 298° |
| 2026-04-12 21:09 | 37.00963 | -79.59372 | 2852 ft | 152 kts | 296° |
| 2026-04-12 21:10 | 37.01500 | -79.60502 | 2857 ft | 151 kts | 295° |
| 2026-04-12 21:10 | 37.02039 | -79.61573 | 2851 ft | 138 kts | 296° |
| 2026-04-12 21:10 | 37.02501 | -79.62563 | 2852 ft | 125 kts | 294° |
| 2026-04-12 21:10 | 37.02920 | -79.63450 | 2889 ft | 110 kts | 295° |
| 2026-04-12 21:11 | 37.03327 | -79.64252 | 2864 ft | 108 kts | 302° |
| 2026-04-12 21:11 | 37.03974 | -79.64737 | 2865 ft | 112 kts | 345° |
| 2026-04-12 21:11 | 37.04724 | -79.64672 | 2855 ft | 105 kts | 22° |
| 2026-04-12 21:11 | 37.05265 | -79.64160 | 2869 ft | 93 kts | 60° |
| 2026-04-12 21:12 | 37.05618 | -79.63485 | 2866 ft | 94 kts | 67° |
| 2026-04-12 21:12 | 37.05952 | -79.62757 | 2883 ft | 99 kts | 68° |
| 2026-04-12 21:12 | 37.06283 | -79.62005 | 2893 ft | 96 kts | 79° |
| 2026-04-12 21:12 | 37.06647 | -79.61348 | 2858 ft | 95 kts | 41° |
| 2026-04-12 21:13 | 37.07276 | -79.61108 | 2853 ft | 97 kts | 7° |
| 2026-04-12 21:13 | 37.07939 | -79.61232 | 2854 ft | 97 kts | 339° |
| 2026-04-12 21:13 | 37.08582 | -79.61495 | 2855 ft | 98 kts | 336° |
| 2026-04-12 21:13 | 37.09252 | -79.61688 | 2873 ft | 102 kts | 346° |
| 2026-04-12 21:14 | 37.09945 | -79.61840 | 2874 ft | 101 kts | 345° |
| 2026-04-12 21:14 | 37.10653 | -79.62008 | 2887 ft | 107 kts | 349° |
| 2026-04-12 21:14 | 37.11422 | -79.62158 | 2892 ft | 116 kts | 349° |
| 2026-04-12 21:14 | 37.12239 | -79.62314 | 2891 ft | 121 kts | 349° |
| 2026-04-12 21:15 | 37.13075 | -79.62486 | 2860 ft | 121 kts | 349° |
| 2026-04-12 21:15 | 37.13900 | -79.62675 | 2847 ft | 120 kts | 348° |
| 2026-04-12 21:15 | 37.14707 | -79.62815 | 2848 ft | 114 kts | 348° |
| 2026-04-12 21:15 | 37.15466 | -79.63060 | 2851 ft | 112 kts | 333° |
| 2026-04-12 21:16 | 37.16029 | -79.63693 | 2862 ft | 108 kts | 294° |
| 2026-04-12 21:16 | 37.16190 | -79.64559 | 2868 ft | 100 kts | 252° |
| 2026-04-12 21:16 | 37.15913 | -79.65291 | 2873 ft | 89 kts | 215° |
| 2026-04-12 21:16 | 37.15426 | -79.65693 | 2864 ft | 83 kts | 192° |
| 2026-04-12 21:17 | 37.14892 | -79.65587 | 2864 ft | 81 kts | 152° |
| 2026-04-12 21:17 | 37.14425 | -79.65197 | 2854 ft | 77 kts | 147° |
| 2026-04-12 21:17 | 37.14044 | -79.64809 | 2886 ft | 63 kts | 146° |
| 2026-04-12 21:17 | 37.13716 | -79.64428 | 2883 ft | 67 kts | 147° |
| 2026-04-12 21:18 | 37.13357 | -79.64058 | 2861 ft | 67 kts | 149° |
| 2026-04-12 21:18 | 37.12986 | -79.63703 | 2873 ft | 67 kts | 149° |
| 2026-04-12 21:18 | 37.12518 | -79.63497 | 2897 ft | 78 kts | 184° |
| 2026-04-12 21:18 | 37.11998 | -79.63772 | 2868 ft | 85 kts | 206° |
| 2026-04-12 21:19 | 37.11456 | -79.64058 | 2858 ft | 84 kts | 197° |
| 2026-04-12 21:19 | 37.10921 | -79.64314 | 2865 ft | 80 kts | 197° |
| 2026-04-12 21:19 | 37.10408 | -79.64533 | 2851 ft | 77 kts | 194° |
| 2026-04-12 21:19 | 37.09908 | -79.64736 | 2852 ft | 74 kts | 193° |
| 2026-04-12 21:20 | 37.09420 | -79.64943 | 2851 ft | 75 kts | 197° |
| 2026-04-12 21:20 | 37.08944 | -79.65148 | 2848 ft | 68 kts | 193° |
| 2026-04-12 21:20 | 37.08514 | -79.65066 | 2885 ft | 69 kts | 152° |
| 2026-04-12 21:20 | 37.08083 | -79.64768 | 2888 ft | 70 kts | 155° |
| 2026-04-12 21:21 | 37.07653 | -79.64463 | 2880 ft | 76 kts | 154° |
| 2026-04-12 21:21 | 37.07204 | -79.64107 | 2870 ft | 76 kts | 151° |
| 2026-04-12 21:21 | 37.06754 | -79.63771 | 2863 ft | 73 kts | 155° |
| 2026-04-12 21:21 | 37.06365 | -79.63392 | 2845 ft | 70 kts | 127° |
| 2026-04-12 21:22 | 37.06286 | -79.62779 | 2836 ft | 77 kts | 89° |
| 2026-04-12 21:22 | 37.06552 | -79.62196 | 2847 ft | 83 kts | 52° |
| 2026-04-12 21:22 | 37.06994 | -79.61680 | 2819 ft | 89 kts | 46° |
| 2026-04-12 21:22 | 37.07492 | -79.61116 | 2670 ft | 102 kts | 52° |
| 2026-04-12 21:23 | 37.07976 | -79.60459 | 2575 ft | 104 kts | 55° |
| 2026-04-12 21:23 | 37.08479 | -79.59751 | 2405 ft | 112 kts | 60° |
| 2026-04-12 21:23 | 37.08940 | -79.58953 | 2248 ft | 114 kts | 61° |
| 2026-04-12 21:23 | 37.09477 | -79.58235 | 2124 ft | 115 kts | 49° |
| 2026-04-12 21:24 | 37.10117 | -79.57610 | 2027 ft | 117 kts | 38° |
| 2026-04-12 21:24 | 37.10748 | -79.57038 | 2030 ft | 109 kts | 47° |
| 2026-04-12 21:24 | 37.11284 | -79.56355 | 1915 ft | 112 kts | 45° |
| 2026-04-12 21:24 | 37.11896 | -79.55923 | 1908 ft | 94 kts | 15° |
| 2026-04-12 21:25 | 37.12510 | -79.56160 | 1705 ft | 93 kts | 317° |
| 2026-04-12 21:25 | 37.12706 | -79.56835 | 1555 ft | 79 kts | 251° |
| 2026-04-12 21:25 | 37.12408 | -79.57313 | 1435 ft | 64 kts | 215° |
| 2026-04-12 21:25 | 37.12093 | -79.57683 | 1353 ft | 63 kts | 216° |
| 2026-04-12 21:26 | 37.11771 | -79.58053 | 1234 ft | 63 kts | 216° |
| 2026-04-12 21:26 | 37.11105 | -79.58837 | 937 ft | 68 kts | 222° |
| 2026-04-12 21:26 | 37.10782 | -79.59238 | 881 ft | 58 kts | 221° |
| 2026-04-12 21:27 | 37.10630 | -79.59426 | 875 ft | 16 kts | 224° |
| 2026-04-12 21:27 | 37.10569 | -79.59502 | 874 ft | 12 kts | 225° |
| 2026-04-12 21:27 | 37.10530 | -79.59550 | 872 ft | 9 kts | 219° |
| 2026-04-12 21:27 | 37.10467 | -79.59597 | 868 ft | 8 kts | 268° |
| 2026-04-12 21:28 | 37.10533 | -79.59548 | 873 ft | 21 kts | 44° |
| 2026-04-12 21:28 | 37.10673 | -79.59375 | 877 ft | 33 kts | 44° |
| 2026-04-12 21:28 | 37.10840 | -79.59166 | 882 ft | 32 kts | 45° |
| 2026-04-12 21:28 | 37.10944 | -79.59046 | 888 ft | 13 kts | 22° |
| 2026-04-12 21:29 | 37.11032 | -79.59015 | 890 ft | 10 kts | 28° |
| 2026-04-12 21:29 | 37.11051 | -79.59018 | 891 ft | 0 kts | 295° |
| 2026-04-12 21:29 | 37.11051 | -79.59020 | 891 ft | 0 kts | 292° |